Time;durP1;ratioP1;P1;durP2;ratioP2;P2;SDS_P1;SDS_P2;PMS_P1;PMS_P2;Temp;Humidity;BMP_temperature;BMP_pressure;BME280_temperature;BME280_humidity;BME280_pressure;Samples;Min_cycle;Max_cycle;Signal;HPM_P1;HPM_P2
2023/01/03 00:01:41;;;;;;;3.10;1.40;;;9.40;99.90;;;8.44;100.00;98404.09;5062516;28;20478;-72
2023/01/03 00:04:08;;;;;;;1.75;1.45;;;9.40;99.90;;;8.48;100.00;98407.13;5060911;28;20426;-72
2023/01/03 00:06:37;;;;;;;1.50;1.40;;;9.50;99.90;;;8.50;100.00;98413.78;5062775;28;20427;-73
2023/01/03 00:09:08;;;;;;;1.63;1.40;;;9.50;99.90;;;8.49;100.00;98422.72;5071041;28;20400;-72
2023/01/03 00:14:24;;;;;;;2.40;1.55;;;9.50;99.90;;;8.51;100.00;98433.88;5071054;28;20392;-72
2023/01/03 00:16:52;;;;;;;2.13;1.40;;;9.50;99.90;;;8.50;100.00;98447.28;5072779;28;20873;-72
2023/01/03 00:19:20;;;;;;;2.27;1.50;;;9.40;99.90;;;8.38;100.00;98443.69;5071550;28;20430;-72
2023/01/03 00:21:46;;;;;;;3.15;1.45;;;9.30;99.90;;;8.33;100.00;98440.91;5053851;28;20400;-73
2023/01/03 00:24:12;;;;;;;2.10;1.50;;;9.30;99.90;;;8.29;100.00;98445.75;5071926;28;20477;-73
2023/01/03 00:26:39;;;;;;;2.57;1.33;;;9.30;99.90;;;8.26;100.00;98426.91;5072459;28;20530;-73
2023/01/03 00:29:07;;;;;;;3.40;1.40;;;9.20;99.90;;;8.24;100.00;98442.13;5072427;28;20403;-72
2023/01/03 00:31:34;;;;;;;1.80;1.48;;;9.20;99.90;;;8.21;100.00;98445.16;5071913;28;21282;-72
2023/01/03 00:34:00;;;;;;;2.70;1.50;;;9.20;99.90;;;8.19;100.00;98436.69;5054111;28;20411;-73
2023/01/03 00:36:26;;;;;;;1.98;1.50;;;9.10;99.90;;;8.13;100.00;98433.03;5072210;28;20391;-72
2023/01/03 00:38:52;;;;;;;1.63;1.53;;;9.10;99.90;;;8.10;100.00;98423.72;5072394;28;20458;-73
2023/01/03 00:41:19;;;;;;;2.92;1.50;;;9.10;99.90;;;8.12;100.00;98424.31;5071693;28;20943;-73
2023/01/03 00:43:47;;;;;;;1.67;1.58;;;9.10;99.90;;;8.14;100.00;98430.19;5071551;28;20407;-73
2023/01/03 00:46:15;;;;;;;2.00;1.60;;;9.10;99.90;;;8.14;100.00;98438.09;5072187;28;20529;-73
2023/01/03 00:48:43;;;;;;;2.60;1.63;;;9.10;99.90;;;8.14;100.00;98429.38;5072217;28;20407;-73
2023/01/03 00:51:13;;;;;;;1.50;1.40;;;9.10;99.90;;;8.12;100.00;98428.75;5072003;28;20418;-72
2023/01/03 00:53:40;;;;;;;3.78;1.50;;;9.10;99.90;;;8.11;100.00;98429.81;5071477;28;20901;-72
2023/01/03 00:56:09;;;;;;;1.93;1.30;;;9.10;99.90;;;8.11;100.00;98424.53;5072040;28;20887;-73
2023/01/03 00:58:35;;;;;;;1.50;1.40;;;9.10;99.90;;;8.15;100.00;98436.28;5071899;28;20976;-73
2023/01/03 01:01:05;;;;;;;1.60;1.40;;;9.10;99.90;;;8.14;100.00;98439.91;5053858;28;20412;-72
2023/01/03 01:03:31;;;;;;;2.67;1.40;;;9.10;99.90;;;8.11;100.00;98429.81;5070635;28;20407;-73
2023/01/03 01:05:58;;;;;;;2.40;1.50;;;9.10;99.90;;;8.08;100.00;98436.31;5071755;28;20486;-73
2023/01/03 01:08:25;;;;;;;4.03;1.73;;;9.10;99.90;;;8.04;100.00;98429.03;5071759;28;20958;-73
2023/01/03 01:11:03;;;;;;;2.22;1.60;;;9.00;99.90;;;7.99;100.00;98429.63;5071699;28;20953;-73
2023/01/03 01:13:29;;;;;;;1.80;1.70;;;9.00;99.90;;;7.91;100.00;98407.97;5070508;28;20399;-73
2023/01/03 01:15:59;;;;;;;3.35;1.48;;;8.90;99.90;;;7.90;100.00;98415.06;5071602;28;20428;-73
2023/01/03 01:18:24;;;;;;;4.55;1.77;;;8.90;99.90;;;7.86;100.00;98419.16;5071545;28;20403;-73
2023/01/03 01:20:50;;;;;;;3.30;1.80;;;8.90;99.90;;;7.84;100.00;98423.00;5071338;28;20410;-73
2023/01/03 01:23:18;;;;;;;3.10;1.60;;;8.80;99.90;;;7.85;100.00;98429.88;5070360;28;20742;-73
2023/01/03 01:25:44;;;;;;;2.85;1.60;;;8.80;99.90;;;7.84;100.00;98430.91;5071405;28;20418;-73
2023/01/03 01:28:09;;;;;;;2.03;1.70;;;8.80;99.90;;;7.81;100.00;98439.25;5085020;28;20394;-74
2023/01/03 01:30:36;;;;;;;2.05;1.40;;;8.80;99.90;;;7.77;100.00;98442.28;5091459;28;20404;-73
2023/01/03 01:33:02;;;;;;;2.17;1.60;;;8.80;99.90;;;7.75;100.00;98438.22;5090522;28;20493;-73
2023/01/03 01:35:28;;;;;;;1.50;1.40;;;8.80;99.90;;;7.75;100.00;98454.03;5091507;28;20423;-73
2023/01/03 01:37:56;;;;;;;1.60;1.50;;;8.80;99.90;;;7.74;100.00;98453.22;5091406;28;20398;-73
2023/01/03 01:40:23;;;;;;;1.60;1.33;;;8.70;99.90;;;7.70;100.00;98449.41;5091499;28;20397;-73
2023/01/03 01:45:34;;;;;;;2.30;1.90;;;8.70;99.90;;;7.64;100.00;98444.97;5091325;28;20401;-73
2023/01/03 01:48:05;;;;;;;2.00;1.70;;;8.70;99.90;;;7.61;100.00;98449.81;5073074;28;20428;-74
2023/01/03 01:50:38;;;;;;;2.05;1.40;;;8.60;99.90;;;7.55;100.00;98458.53;5091112;28;20405;-73
2023/01/03 01:53:08;;;;;;;2.35;1.45;;;8.50;99.90;;;7.49;100.00;98454.09;5090077;28;20418;-73
2023/01/03 01:55:40;;;;;;;3.78;1.70;;;8.50;99.90;;;7.48;100.00;98465.66;5091097;28;20402;-72
2023/01/03 01:58:07;;;;;;;2.53;1.80;;;8.50;99.90;;;7.42;100.00;98461.19;5091070;28;20444;-73
2023/01/03 02:00:35;;;;;;;3.10;1.40;;;8.40;99.90;;;7.39;100.00;98454.50;5091035;28;20390;-73
2023/01/03 02:03:01;;;;;;;3.30;1.65;;;8.40;99.90;;;7.41;100.00;98459.56;5089947;28;20406;-73
2023/01/03 02:05:27;;;;;;;1.88;1.33;;;8.40;99.90;;;7.43;100.00;98450.47;5090774;28;20809;-73
2023/01/03 02:07:55;;;;;;;2.20;1.60;;;8.40;99.90;;;7.46;100.00;98452.69;5090859;28;20394;-73
2023/01/03 02:10:38;;;;;;;2.10;1.63;;;8.50;99.90;;;7.46;100.00;98459.75;5090849;28;20479;-73
2023/01/03 02:13:17;;;;;;;2.25;1.50;;;8.50;99.90;;;7.42;100.00;98458.56;5089812;28;20433;-73
2023/01/03 02:16:12;;;;;;;1.70;1.60;;;8.40;99.90;;;7.41;100.00;98449.84;5090787;28;20491;-73
2023/01/03 02:18:50;;;;;;;1.90;1.70;;;8.50;99.90;;;7.43;100.00;98462.81;5090614;28;20447;-73
2023/01/03 02:22:01;;;;;;;2.42;1.60;;;8.50;99.90;;;7.37;100.00;98470.50;5089997;28;20963;-73
2023/01/03 02:24:58;;;;;;;2.03;1.65;;;8.40;99.90;;;7.33;100.00;98461.41;5090038;28;20420;-73
2023/01/03 02:28:22;;;;;;;1.52;1.42;;;8.40;99.90;;;7.25;100.00;98464.25;5090535;28;20394;-73
2023/01/03 02:30:56;;;;;;;3.42;1.52;;;8.30;99.90;;;7.16;100.00;98472.53;5090454;28;20488;-73
2023/01/03 02:33:31;;;;;;;1.90;1.60;;;8.20;99.90;;;7.06;100.00;98464.25;5089544;28;20923;-73
2023/01/03 02:36:06;;;;;;;3.83;2.30;;;8.10;99.90;;;7.04;100.00;98469.72;5090458;28;20461;-73
2023/01/03 02:38:48;;;;;;;1.50;1.40;;;8.10;99.90;;;7.02;100.00;98474.38;5090507;28;20759;-73
2023/01/03 02:41:24;;;;;;;1.80;1.70;;;8.10;99.90;;;6.97;100.00;98482.06;5089683;28;20443;-73
2023/01/03 02:43:54;;;;;;;2.15;1.70;;;8.00;99.90;;;6.92;100.00;98468.69;5089042;28;20410;-73
2023/01/03 02:46:28;;;;;;;2.30;1.70;;;8.00;99.90;;;6.85;100.00;98478.38;5090198;28;20928;-72
2023/01/03 02:48:59;;;;;;;2.10;1.50;;;7.90;99.90;;;6.78;100.00;98467.84;5089853;28;20394;-73
2023/01/03 02:51:33;;;;;;;2.80;1.60;;;7.80;99.90;;;6.70;100.00;98465.41;5089612;28;20420;-73
2023/01/03 02:54:01;;;;;;;2.67;1.60;;;7.80;99.90;;;6.68;100.00;98462.19;5089597;28;20422;-73
2023/01/03 02:56:34;;;;;;;2.10;1.90;;;7.70;99.90;;;6.68;100.00;98470.09;5089889;28;20402;-73
2023/01/03 02:59:07;;;;;;;3.70;1.98;;;7.70;99.90;;;6.67;100.00;98470.28;5090170;28;20469;-73
2023/01/03 03:01:36;;;;;;;3.87;2.27;;;7.70;99.90;;;6.61;100.00;98472.66;5089396;28;20390;-73
2023/01/03 03:04:05;;;;;;;2.57;1.90;;;7.60;99.90;;;6.63;100.00;98475.09;5089389;28;20440;-73
2023/01/03 03:06:37;;;;;;;4.90;1.90;;;7.70;99.90;;;6.64;100.00;98473.28;5089901;28;20394;-72
2023/01/03 03:09:03;;;;;;;3.90;2.17;;;7.70;99.90;;;6.69;100.00;98474.31;5090007;28;20492;-73
2023/01/03 03:14:24;;;;;;;4.57;1.90;;;7.70;99.90;;;6.72;100.00;98486.25;5089894;28;20886;-74
2023/01/03 03:16:54;;;;;;;3.30;1.85;;;7.80;99.90;;;6.76;100.00;98483.06;5071680;28;20398;-73
2023/01/03 03:25:15;;;;;;;3.22;1.92;;;7.80;99.90;;;6.77;100.00;98471.50;5089761;28;20467;-74
2023/01/03 03:30:36;;;;;;;2.15;1.95;;;7.80;99.90;;;6.78;100.00;98464.41;5089693;28;20417;-74
2023/01/03 03:33:05;;;;;;;2.50;2.00;;;7.80;99.90;;;6.77;100.00;98462.78;5088662;28;20394;-74
2023/01/03 03:35:36;;;;;;;2.53;2.10;;;7.80;99.90;;;6.73;100.00;98462.38;5089653;28;20894;-74
2023/01/03 03:38:05;;;;;;;3.17;2.00;;;7.80;99.90;;;6.73;100.00;98466.84;5089826;28;20406;-73
2023/01/03 03:46:23;;;;;;;3.45;1.90;;;7.60;99.90;;;6.53;100.00;98462.34;5089646;28;20439;-74
2023/01/03 03:51:46;;;;;;;5.83;2.07;;;7.60;99.90;;;6.42;100.00;98470.81;5089084;28;20393;-73
2023/01/03 03:54:20;;;;;;;2.70;1.90;;;7.50;99.90;;;6.38;100.00;98481.94;5090460;22;20955;-74
2023/01/03 03:56:53;;;;;;;4.97;2.15;;;7.40;99.90;;;6.34;100.00;98478.06;5072967;28;20430;-74
2023/01/03 03:59:21;;;;;;;5.95;2.30;;;7.40;99.90;;;6.31;100.00;98483.72;5072972;28;20411;-74
2023/01/03 04:01:48;;;;;;;2.00;1.80;;;7.30;99.90;;;6.25;100.00;98484.50;5054440;28;20400;-74
2023/01/03 04:04:21;;;;;;;2.50;2.20;;;7.30;99.90;;;6.19;100.00;98484.28;5072480;28;20837;-74
2023/01/03 04:06:50;;;;;;;4.95;2.50;;;7.30;99.90;;;6.14;100.00;98491.94;5072907;28;20414;-74
2023/01/03 04:09:18;;;;;;;2.73;2.40;;;7.20;99.90;;;6.12;100.00;98485.25;5072834;28;20400;-74
2023/01/03 04:11:43;;;;;;;2.55;2.35;;;7.20;99.90;;;6.08;100.00;98484.84;5072229;28;20886;-74
2023/01/03 04:14:10;;;;;;;2.40;2.20;;;7.20;99.90;;;6.04;100.00;98474.91;5072350;28;20421;-74
2023/01/03 04:16:36;;;;;;;5.53;2.78;;;7.10;99.90;;;6.03;100.00;98489.84;5072062;28;20404;-74
2023/01/03 04:19:02;;;;;;;4.20;2.40;;;7.10;99.90;;;5.95;100.00;98483.94;5054219;28;20408;-74
2023/01/03 04:21:29;;;;;;;5.25;2.40;;;7.10;99.90;;;5.90;100.00;98489.81;5071819;28;20415;-74
2023/01/03 04:23:55;;;;;;;7.95;2.97;;;7.00;99.90;;;5.87;100.00;98492.78;5071882;28;20947;-74
2023/01/03 04:26:21;;;;;;;2.97;2.50;;;7.00;99.90;;;5.82;100.00;98495.19;5072214;28;20459;-74
2023/01/03 04:28:47;;;;;;;2.80;2.50;;;6.90;99.90;;;5.77;100.00;98495.75;5072352;28;20404;-74
2023/01/03 04:31:13;;;;;;;3.72;2.80;;;6.90;99.90;;;5.71;100.00;98495.72;5071751;28;21079;-75
2023/01/03 04:33:39;;;;;;;6.63;2.78;;;6.80;99.90;;;5.68;100.00;98488.22;5071953;28;20399;-75
2023/01/03 04:36:05;;;;;;;5.20;2.93;;;6.70;99.90;;;5.59;100.00;98489.38;5072149;28;21002;-75
2023/01/03 04:38:32;;;;;;;4.03;2.97;;;6.70;99.90;;;5.53;100.00;98488.31;5072167;28;20415;-74
2023/01/03 04:41:04;;;;;;;4.38;2.92;;;6.70;99.90;;;5.51;100.00;98497.38;5072312;28;20396;-74
2023/01/03 04:46:14;;;;;;;3.58;2.72;;;6.60;99.90;;;5.47;100.00;98496.97;5072157;28;20918;-75
2023/01/03 04:48:40;;;;;;;6.00;2.88;;;6.60;99.90;;;5.47;100.00;98499.59;5072265;28;20396;-74
2023/01/03 04:51:06;;;;;;;5.72;3.20;;;6.60;99.90;;;5.48;100.00;98500.41;5072079;28;20410;-75
2023/01/03 04:53:33;;;;;;;4.38;2.70;;;6.60;99.90;;;5.48;100.00;98506.47;5070876;28;20400;-74
2023/01/03 04:55:59;;;;;;;5.57;2.83;;;6.60;99.90;;;5.47;100.00;98509.28;5071958;28;20738;-74
2023/01/03 04:58:25;;;;;;;3.47;3.15;;;6.60;99.90;;;5.51;100.00;98500.00;5072018;28;20414;-74
2023/01/03 05:00:57;;;;;;;5.60;3.03;;;6.60;99.90;;;5.54;100.00;98502.28;5071765;28;20403;-74
2023/01/03 05:03:23;;;;;;;4.47;3.00;;;6.70;99.90;;;5.56;100.00;98497.66;5070346;28;20400;-75
2023/01/03 05:05:49;;;;;;;4.88;2.70;;;6.70;99.90;;;5.58;100.00;98496.44;5070683;28;20403;-74
2023/01/03 05:08:15;;;;;;;7.57;3.30;;;6.70;99.90;;;5.58;100.00;98495.63;5071789;28;20530;-74
2023/01/03 05:10:42;;;;;;;6.97;3.10;;;6.60;99.90;;;5.58;100.00;98496.44;5071811;28;20529;-74
2023/01/03 05:13:08;;;;;;;3.00;2.65;;;6.70;99.90;;;5.59;100.00;98492.81;5070717;28;20403;-74
2023/01/03 05:15:37;;;;;;;4.15;2.97;;;6.70;99.90;;;5.63;100.00;98490.63;5071627;28;20403;-73
2023/01/03 05:18:04;;;;;;;7.72;3.05;;;6.70;99.90;;;5.58;100.00;98500.88;5071621;28;20798;-74
2023/01/03 05:26:08;;;;;;;6.30;2.90;;;6.60;99.90;;;5.52;100.00;98499.84;5081260;28;20451;-74
2023/01/03 05:28:35;;;;;;;5.38;2.65;;;6.60;99.90;;;5.50;100.00;98503.63;5091596;28;20401;-74
2023/01/03 05:31:01;;;;;;;6.38;2.90;;;6.60;99.90;;;5.48;100.00;98503.03;5091434;28;20401;-75
2023/01/03 05:33:27;;;;;;;5.83;2.90;;;6.60;99.90;;;5.45;100.00;98501.59;5090591;28;20389;-74
2023/01/03 05:35:53;;;;;;;5.67;2.60;;;6.50;99.90;;;5.44;100.00;98492.09;5091422;28;20402;-74
2023/01/03 05:38:19;;;;;;;5.53;2.83;;;6.50;99.90;;;5.44;100.00;98494.72;5091487;28;20410;-75
2023/01/03 05:40:45;;;;;;;5.18;2.80;;;6.50;99.90;;;5.40;100.00;98510.06;5091307;28;20399;-74
2023/01/03 05:43:12;;;;;;;5.07;2.93;;;6.50;99.90;;;5.39;100.00;98505.00;5090019;28;20441;-75
2023/01/03 05:45:39;;;;;;;3.30;2.58;;;6.50;99.90;;;5.34;100.00;98504.72;5091231;28;20417;-75
2023/01/03 05:48:06;;;;;;;4.10;2.50;;;6.40;99.90;;;5.29;100.00;98521.06;5091274;28;20398;-75
2023/01/03 05:50:32;;;;;;;3.10;2.50;;;6.40;99.90;;;5.23;100.00;98526.25;5091098;28;20460;-75
2023/01/03 05:52:58;;;;;;;4.65;3.13;;;6.30;99.90;;;5.20;100.00;98516.13;5090003;28;20759;-74
2023/01/03 05:55:24;;;;;;;7.88;2.90;;;6.30;99.90;;;5.12;100.00;98524.13;5091185;28;20394;-75
2023/01/03 05:57:51;;;;;;;5.68;2.97;;;6.20;99.90;;;5.03;100.00;98523.47;5091099;28;20407;-74
2023/01/03 06:00:19;;;;;;;3.85;2.50;;;6.10;99.90;;;4.99;100.00;98516.97;5090906;28;20873;-75
2023/01/03 06:02:45;;;;;;;4.05;2.70;;;6.10;99.90;;;4.96;100.00;98520.75;5089928;28;20487;-74
2023/01/03 06:05:11;;;;;;;3.83;2.80;;;6.10;99.90;;;4.96;100.00;98530.47;5090710;28;20526;-74
2023/01/03 06:07:37;;;;;;;4.60;2.50;;;6.10;99.90;;;4.94;100.00;98533.28;5090848;28;21018;-75
2023/01/03 06:10:04;;;;;;;4.00;2.90;;;6.00;99.90;;;4.89;100.00;98533.00;5090787;28;20489;-74
2023/01/03 06:12:30;;;;;;;7.35;3.20;;;6.00;99.90;;;4.90;100.00;98534.63;5090013;28;20405;-74
2023/01/03 06:14:56;;;;;;;4.30;2.80;;;6.10;99.90;;;4.94;100.00;98535.06;5090454;28;20397;-74
2023/01/03 06:20:08;;;;;;;8.77;3.20;;;6.00;99.90;;;4.81;100.00;98524.47;5091017;28;20581;-74
2023/01/03 06:22:34;;;;;;;2.70;2.50;;;6.00;99.90;;;4.81;100.00;98529.72;5089759;28;20745;-74
2023/01/03 06:25:00;;;;;;;3.03;2.47;;;5.90;99.90;;;4.82;100.00;98539.19;5090372;28;20814;-75
2023/01/03 06:27:26;;;;;;;3.25;2.88;;;6.00;99.90;;;4.84;100.00;98545.88;5072403;28;20405;-74
2023/01/03 06:29:52;;;;;;;7.40;3.53;;;6.00;99.90;;;4.90;100.00;98539.88;5090341;28;20394;-74
2023/01/03 06:32:18;;;;;;;4.88;3.38;;;6.00;99.90;;;4.89;100.00;98542.69;5089827;28;20410;-74
2023/01/03 06:34:45;;;;;;;3.43;3.10;;;6.00;99.90;;;4.89;100.00;98545.28;5071891;28;20497;-74
2023/01/03 06:37:11;;;;;;;6.05;3.17;;;6.00;99.90;;;4.84;100.00;98545.88;5090455;28;20447;-75
2023/01/03 06:39:37;;;;;;;4.93;3.20;;;6.00;99.90;;;4.80;100.00;98547.25;5090146;28;20427;-74
2023/01/03 06:53:10;;;;;;;4.45;3.38;;;5.90;99.90;;;4.82;100.00;98552.28;5089855;28;21483;-74
2023/01/03 06:53:13;;;;;;;3.25;2.95;;;5.90;99.90;;;4.78;100.00;98551.06;5089035;28;20401;-74
2023/01/03 06:55:41;;;;;;;6.35;3.40;;;5.90;99.90;;;4.77;100.00;98552.03;5090164;28;20454;-74
2023/01/03 06:58:07;;;;;;;6.67;3.53;;;5.90;99.90;;;4.78;100.00;98562.34;5090014;28;20946;-74
2023/01/03 07:00:34;;;;;;;4.68;3.00;;;6.00;99.90;;;4.75;100.00;98560.09;5090027;28;20404;-74
2023/01/03 07:03:00;;;;;;;5.00;3.20;;;5.90;99.90;;;4.66;100.00;98562.00;5089064;28;20398;-74
2023/01/03 07:05:27;;;;;;;3.72;3.35;;;5.80;99.90;;;4.61;100.00;98564.38;5089982;28;20406;-74
2023/01/03 07:07:53;;;;;;;6.37;3.10;;;5.80;99.90;;;4.61;100.00;98563.56;5090074;28;20415;-73
2023/01/03 07:10:19;;;;;;;6.68;3.55;;;5.80;99.90;;;4.59;100.00;98566.38;5089992;28;20406;-74
2023/01/03 07:15:29;;;;;;;6.32;3.03;;;5.70;99.90;;;4.52;100.00;98565.47;5090041;28;20443;-74
2023/01/03 07:17:55;;;;;;;7.47;3.20;;;5.70;99.90;;;4.53;100.00;98567.09;5089867;28;20402;-74
2023/01/03 07:20:21;;;;;;;4.55;3.03;;;5.70;99.90;;;4.52;100.00;98575.16;5089798;28;20406;-74
2023/01/03 07:22:49;;;;;;;4.57;2.83;;;5.70;99.90;;;4.46;100.00;98578.50;5088923;28;20485;-73
2023/01/03 07:25:15;;;;;;;3.88;3.17;;;5.60;99.90;;;4.40;100.00;98572.19;5082037;28;20422;-74
2023/01/03 07:27:41;;;;;;;3.60;2.97;;;5.60;99.90;;;4.38;100.00;98581.22;5069132;28;20403;-73
2023/01/03 07:30:08;;;;;;;4.60;2.93;;;5.50;99.90;;;4.37;100.00;98583.03;5072925;28;20395;-74
2023/01/03 07:32:34;;;;;;;3.70;2.70;;;5.60;99.90;;;4.38;100.00;98578.59;5072806;28;20492;-74
2023/01/03 07:35:01;;;;;;;5.75;2.90;;;5.60;99.90;;;4.42;100.00;98585.94;5073271;28;20903;-74
2023/01/03 07:37:27;;;;;;;5.63;2.73;;;5.60;99.90;;;4.40;100.00;98587.09;5073189;28;20396;-74
2023/01/03 07:39:54;;;;;;;5.32;2.70;;;5.60;99.90;;;4.42;100.00;98593.81;5073518;28;21099;-74
2023/01/03 07:45:07;;;;;;;5.60;3.08;;;5.50;99.90;;;4.41;100.00;98589.53;5072953;28;20502;-73
2023/01/03 07:47:33;;;;;;;5.97;3.00;;;5.60;99.90;;;4.46;100.00;98589.00;5055193;28;20406;-74
2023/01/03 07:49:59;;;;;;;5.35;3.10;;;5.60;99.90;;;4.51;100.00;98592.69;5073191;28;20908;-73
2023/01/03 07:52:26;;;;;;;4.53;3.20;;;5.70;99.90;;;4.61;100.00;98598.47;5072630;28;20408;-74
2023/01/03 07:54:52;;;;;;;3.65;3.17;;;5.80;99.90;;;4.68;100.00;98599.34;5072685;28;20406;-74
2023/01/03 07:57:19;;;;;;;4.80;3.63;;;5.80;99.90;;;4.77;100.00;98599.25;5073112;28;20897;-74
2023/01/03 07:59:45;;;;;;;7.60;3.53;;;5.90;99.90;;;4.83;100.00;98609.00;5072991;28;20761;-73
2023/01/03 08:02:10;;;;;;;4.18;3.22;;;6.00;99.90;;;4.88;100.00;98604.84;5072232;28;20395;-73
2023/01/03 08:04:36;;;;;;;4.63;3.53;;;6.00;99.90;;;4.94;100.00;98608.53;5072436;28;21144;-74
2023/01/03 08:07:02;;;;;;;8.33;3.70;;;6.10;99.90;;;4.96;100.00;98604.72;5072801;28;20738;-74
2023/01/03 08:14:59;;;;;;;4.88;3.40;;;6.10;99.90;;;5.11;100.00;98622.25;5072210;28;20410;-74
2023/01/03 08:17:24;;;;;;;6.97;3.57;;;6.20;99.90;;;5.15;100.00;98620.88;5072725;28;20411;-74
2023/01/03 08:19:50;;;;;;;8.23;3.75;;;6.30;99.90;;;5.21;100.00;98620.13;5072563;28;20403;-75
2023/01/03 08:22:16;;;;;;;4.05;3.00;;;6.30;99.90;;;5.26;100.00;98620.41;5072172;28;20396;-74
2023/01/03 08:24:42;;;;;;;5.82;2.97;;;6.30;99.90;;;5.32;100.00;98627.53;5072118;28;20416;-76
2023/01/03 08:27:08;;;;;;;5.63;2.90;;;6.40;99.90;;;5.34;100.00;98617.63;5072575;28;21117;-76
2023/01/03 08:29:34;;;;;;;2.80;2.50;;;6.40;99.90;;;5.39;100.00;98617.91;5070892;28;20469;-74
2023/01/03 08:32:01;;;;;;;3.47;2.70;;;6.50;99.90;;;5.47;100.00;98614.31;5070755;28;20411;-74
2023/01/03 08:34:34;;;;;;;4.30;2.55;;;6.50;99.90;;;5.53;100.00;98613.56;5071953;28;20399;-74
2023/01/03 08:37:06;;;;;;;3.40;2.60;;;6.60;99.90;;;5.60;100.00;98610.00;5072336;28;20912;-74
2023/01/03 08:39:40;;;;;;;4.17;2.70;;;6.60;99.90;;;5.68;100.00;98615.13;5071682;28;20889;-74
2023/01/03 08:42:07;;;;;;;2.72;2.35;;;6.70;99.90;;;5.77;100.00;98624.50;5071205;28;20402;-74
2023/01/03 08:44:34;;;;;;;3.00;2.50;;;6.80;99.90;;;5.84;100.00;98629.81;5071743;28;20419;-74
2023/01/03 08:47:03;;;;;;;4.40;2.60;;;6.90;99.90;;;5.93;100.00;98627.88;5072257;28;20443;-74
2023/01/03 08:49:30;;;;;;;6.10;2.93;;;7.00;99.90;;;6.05;100.00;98632.41;5072092;28;20476;-74
2023/01/03 08:51:56;;;;;;;13.52;4.18;;;7.10;99.90;;;6.00;100.00;98636.63;5071384;28;20474;-74
2023/01/03 08:54:22;;;;;;;7.60;3.08;;;7.10;99.90;;;6.00;100.00;98634.00;5071634;28;20811;-75
2023/01/03 08:57:15;;;;;;;2.77;2.50;;;7.00;99.90;;;6.14;100.00;98639.16;5072030;28;21034;-75
2023/01/03 08:59:41;;;;;;;3.80;2.33;;;7.20;99.90;;;6.25;100.00;98642.25;5021065;28;20417;-75
2023/01/03 09:02:08;;;;;;;3.67;2.25;;;7.30;99.90;;;6.34;100.00;98636.66;5068278;28;20410;-75
2023/01/03 09:04:34;;;;;;;2.30;2.00;;;7.40;99.90;;;6.39;100.00;98636.88;5071355;28;20905;-75
2023/01/03 09:07:00;;;;;;;3.22;2.75;;;7.40;99.90;;;6.45;100.00;98641.38;5071784;28;20414;-74
2023/01/03 09:09:26;;;;;;;4.10;2.63;;;7.50;99.90;;;6.51;100.00;98637.16;5053774;28;21056;-74
2023/01/03 09:11:52;;;;;;;3.47;2.78;;;7.50;99.90;;;6.51;100.00;98640.59;5070084;28;20399;-75
2023/01/03 09:14:18;;;;;;;5.20;2.75;;;7.60;99.90;;;6.56;100.00;98647.91;5051610;28;20403;-75
2023/01/03 09:16:44;;;;;;;6.32;2.33;;;7.60;99.90;;;6.53;100.00;98645.69;5061770;28;20488;-75
2023/01/03 09:19:12;;;;;;;2.78;2.13;;;7.60;99.90;;;6.60;100.00;98643.88;5059904;28;20408;-74
2023/01/03 09:21:37;;;;;;;4.00;2.00;;;7.60;99.90;;;6.66;100.00;98653.63;5061036;28;20482;-75
2023/01/03 09:24:04;;;;;;;3.67;2.10;;;7.70;99.90;;;6.73;100.00;98651.84;5055391;28;20397;-74
2023/01/03 09:26:30;;;;;;;2.65;2.00;;;7.70;99.90;;;6.76;100.00;98656.72;5059840;28;20412;-74
2023/01/03 09:28:56;;;;;;;1.98;1.77;;;7.80;99.90;;;6.84;100.00;98658.38;5064716;28;20407;-74
2023/01/03 09:31:35;;;;;;;3.17;1.80;;;7.90;99.90;;;6.91;100.00;98659.22;5062817;28;20503;-74
2023/01/03 09:34:05;;;;;;;5.23;2.17;;;7.90;99.90;;;6.97;100.00;98656.59;5060065;28;20767;-75
2023/01/03 09:36:33;;;;;;;4.50;2.00;;;8.00;99.90;;;7.07;100.00;98663.34;5068067;28;20433;-74
2023/01/03 09:39:02;;;;;;;2.10;1.90;;;8.10;99.90;;;7.12;100.00;98669.63;5048573;28;20413;-75
2023/01/03 09:41:29;;;;;;;2.20;1.70;;;8.10;99.90;;;7.17;100.00;98672.47;5059148;28;20407;-74
2023/01/03 09:44:02;;;;;;;3.35;2.17;;;8.20;99.90;;;7.24;100.00;98668.03;5058951;28;20439;-75
2023/01/03 09:46:31;;;;;;;5.88;2.80;;;8.20;99.90;;;7.31;100.00;98674.13;5059747;28;20423;-74
2023/01/03 09:48:59;;;;;;;3.47;2.67;;;8.30;99.90;;;7.38;100.00;98676.78;5059740;28;20815;-74
2023/01/03 10:03:43;;;;;;;4.13;1.60;;;8.70;99.90;;;7.60;100.00;98678.25;5063262;28;20446;-74
2023/01/03 10:06:25;;;;;;;3.35;1.70;;;8.60;99.90;;;7.57;100.00;98672.56;5056183;28;20428;-73
2023/01/03 10:09:11;;;;;;;4.18;1.60;;;8.60;99.90;;;7.52;100.00;98675.78;5060680;28;20391;-73
2023/01/03 10:11:56;;;;;;;3.22;1.70;;;8.50;99.90;;;7.54;100.00;98675.59;5058675;28;20398;-73
2023/01/03 10:14:41;;;;;;;4.55;1.60;;;8.50;99.90;;;7.73;100.00;98683.56;5059869;28;20439;-73
2023/01/03 10:17:21;;;;;;;6.78;1.80;;;8.70;99.90;;;7.77;100.00;98676.84;5064368;28;20403;-72
2023/01/03 10:20:31;;;;;;;3.47;1.50;;;8.80;99.90;;;7.89;100.00;98678.91;5059567;28;20395;-73
2023/01/03 10:23:04;;;;;;;3.55;1.75;;;8.80;99.90;;;8.18;100.00;98675.88;5052374;28;20425;-74
2023/01/03 10:25:31;;;;;;;3.25;1.63;;;9.10;99.90;;;8.06;100.00;98673.00;5052247;28;20506;-74
2023/01/03 10:28:11;;;;;;;3.83;1.73;;;9.10;99.90;;;8.22;100.00;98669.16;5060445;28;20401;-75
2023/01/03 10:31:15;;;;;;;3.40;1.88;;;9.20;99.90;;;8.14;100.00;98674.63;5058521;28;20393;-74
2023/01/03 10:33:46;;;;;;;3.08;1.67;;;9.20;99.90;;;8.27;100.00;98676.47;5019351;28;20418;-74
2023/01/03 10:36:16;;;;;;;3.95;1.50;;;9.20;99.90;;;8.54;100.00;98670.97;5058545;28;20398;-74
2023/01/03 10:38:43;;;;;;;2.53;1.63;;;9.50;99.90;;;9.11;100.00;98674.63;5059706;28;20434;-74
2023/01/03 10:41:18;;;;;;;1.90;1.30;;;10.00;99.90;;;9.60;100.00;98667.91;5052179;22;20762;-73
2023/01/03 10:43:57;;;;;;;2.47;1.40;;;10.60;99.90;;;10.21;100.00;98659.31;5048667;28;20413;-74
2023/01/03 10:46:24;;;;;;;2.05;1.38;;;11.10;99.90;;;11.15;100.00;98672.97;5051596;28;20401;-74
2023/01/03 10:48:53;;;;;;;3.50;1.30;;;12.00;99.90;;;11.85;100.00;98667.16;5054637;28;20450;-74
2023/01/03 10:51:31;;;;;;;4.00;1.25;;;12.90;99.90;;;12.63;100.00;98650.94;5044180;28;20403;-74
2023/01/03 10:54:00;;;;;;;2.17;1.20;;;13.70;99.90;;;13.63;100.00;98651.31;5024870;28;20411;-74
2023/01/03 10:56:29;;;;;;;1.75;1.15;;;14.60;99.90;;;14.46;100.00;98641.75;5039894;28;20407;-74
2023/01/03 10:59:23;;;;;;;1.50;1.00;;;15.50;99.90;;;14.98;100.00;98634.16;5038781;28;20410;-74
2023/01/03 11:01:58;;;;;;;1.65;1.10;;;16.10;99.90;;;15.42;100.00;98634.91;5040739;28;20419;-75
2023/01/03 11:04:25;;;;;;;1.80;1.00;;;16.40;99.20;;;15.88;100.00;98645.00;5020326;28;20455;-75
2023/01/03 11:07:11;;;;;;;1.30;0.90;;;16.80;98.70;;;16.13;100.00;98630.22;5038896;28;20657;-74
2023/01/03 11:09:48;;;;;;;2.58;0.80;;;16.90;93.40;;;16.77;100.00;98624.75;5024302;28;20395;-74
2023/01/03 11:12:22;;;;;;;1.77;0.80;;;17.40;95.90;;;16.97;100.00;98620.31;5021635;28;20405;-74
2023/01/03 11:14:51;;;;;;;1.30;0.80;;;17.80;95.80;;;16.88;100.00;98634.44;5005661;28;20403;-74
2023/01/03 11:17:20;;;;;;;0.80;0.68;;;17.80;96.10;;;16.62;82.85;98626.28;5022649;28;20840;-74
2023/01/03 11:19:47;;;;;;;2.20;0.82;;;17.60;83.60;;;16.72;100.00;98625.53;5017520;28;20414;-75
2023/01/03 11:22:24;;;;;;;1.08;0.70;;;17.60;92.80;;;16.94;100.00;98623.50;5025620;28;20933;-75
2023/01/03 11:25:11;;;;;;;1.80;0.70;;;17.80;94.80;;;17.23;100.00;98626.53;5029453;28;20529;-75
2023/01/03 11:28:27;;;;;;;1.00;0.73;;;18.10;93.00;;;17.84;100.00;98624.00;5029497;28;20457;-75
2023/01/03 11:31:05;;;;;;;1.30;0.50;;;18.60;92.80;;;18.28;92.09;98626.91;5022695;28;20399;-75
2023/01/03 11:33:55;;;;;;;4.17;0.70;;;18.90;89.80;;;18.80;89.33;98617.69;5028478;28;20780;-75
2023/01/03 11:36:42;;;;;;;2.22;0.70;;;19.50;89.70;;;18.62;80.20;98613.75;5028634;28;20904;-75
2023/01/03 11:39:26;;;;;;;1.50;0.60;;;19.70;81.60;;;18.50;75.14;98614.00;5029447;28;20425;-75
2023/01/03 11:42:24;;;;;;;2.92;0.77;;;19.50;79.10;;;18.13;67.03;98614.34;5028617;28;20434;-75
2023/01/03 11:45:34;;;;;;;1.20;0.80;;;18.80;71.70;;;18.01;63.23;98619.19;5026999;28;20928;-74
2023/01/03 11:48:29;;;;;;;0.77;0.70;;;18.90;75.70;;;18.02;64.77;98607.41;5023215;28;20415;-73